Sutton, WV

8:13 AM EDT on September 03, 2015 (GMT -0400)
Caress, WV | | Change Station
CLOSE
Current Station
Personal Weather Station
Location: Sutton, WV
Elevation: 1547 ft
Nearby Weather Stations

Elev 1547 ft 38.70 °N, 80.56 °W | Updated 6 seconds ago

Overcast
Overcast
64.6 °F
Feels Like 64.6 °F
N
0.0
Wind Variable Wind from ESE
Gusts 0.0 mph

Today
High -- | Low -- °F
--% Chance of Precip.
Yesterday
High -- | Low -- °F
Precip. -- in
6:53 AM 7:49 PM
Waning Gibbous, 71% visible
Pressure 30.06 in
Visibility 6.0 miles
Clouds Scattered Clouds 3200 ft
Scattered Clouds 4000 ft
Dew Point 64 °F
Humidity 99%
Rainfall 0.00 in
Snow Depth Not available.
UV 1.0 out of 12
Pollen 8.80 out of 12
Air Quality Not available.
Flu Activity Not available.
METAR KW22 031155Z AUTO 00000KT 6SM BR SCT032 SCT040 18/18 A3006 RMK AO2
Pressure 30.06 in
Visibility 6.0 miles
Clouds Scattered Clouds 3200 ft
Scattered Clouds 4000 ft
Dew Point 64 °F
Humidity 99%
Rainfall 0.00 in
Snow Depth Not available.
UV 1.0 out of 12
Pollen 8.80 out of 12
Air Quality Not available.
Flu Activity Not available.
METAR KW22 031155Z AUTO 00000KT 6SM BR SCT032 SCT040 18/18 A3006 RMK AO2

10-Day Weather Forecast

×

Almanac

Astronomy

Sep. 03, 2015 Rise Set
Actual Time
Civil Twilight
Nautical Twilight
Astronomical Twilight
Moon
Length of Visible Light
Length of Day
Tomorrow will be .
, % of the Moon is Illuminated

Today's Extremes

State Highs State Lows

Community

WunderPhotos

Upload Photos

1,851,943 photos uploaded!

WunderBlogs® & News

Nearby

Air Quality

  Air Quality AQ Index Pollutant
Not available.

Snow Depth

Station Depth Elevation

Earthquake Activity

City Distance Mag. Time & Date
Minimum magnitude displayed is 2.5.

Coastal Water Temperatures

Place Temperature

Stations

Nearby Weather Stations

Station Location Temp. Windchill Dew Point Humidity Wind Precip. Elev Updated Type